createdAt,value
2022-10-31T00:02:08.496Z,66.30
2022-10-31T00:07:11.542Z,57.50
2022-10-31T00:12:15.073Z,53.53
2022-10-31T00:17:18.342Z,45.47
2022-10-31T00:22:21.612Z,53.23
2022-10-31T00:27:25.072Z,60.90
2022-10-31T00:32:31.744Z,54.60
2022-10-31T00:37:34.855Z,54.13
2022-10-31T00:42:38.061Z,57.77
2022-10-31T00:47:41.317Z,54.03
2022-10-31T00:52:44.572Z,51.93
2022-10-31T00:57:50.771Z,53.13
2022-10-31T01:02:54.248Z,55.33
2022-10-31T01:07:57.577Z,52.73
2022-10-31T01:13:01.105Z,53.57
2022-10-31T01:18:04.621Z,53.37
2022-10-31T01:23:07.900Z,57.83
2022-10-31T01:28:11.356Z,57.60
2022-10-31T01:33:15.100Z,54.53
2022-10-31T01:38:18.372Z,50.70
2022-10-31T01:48:29.202Z,52.20
2022-10-31T01:53:33.602Z,50.37
2022-10-31T01:58:37.535Z,47.43
2022-10-31T02:03:41.042Z,47.33
2022-10-31T02:08:45.695Z,55.77
2022-10-31T02:13:49.553Z,50.80
2022-10-31T02:18:52.992Z,52.73
2022-10-31T02:24:38.943Z,46.20
2022-10-31T02:30:03.354Z,50.87
2022-10-31T02:35:22.573Z,46.20
2022-10-31T02:40:36.723Z,49.73
2022-10-31T02:46:09.092Z,42.00
2022-10-31T02:51:14.050Z,38.17
2022-10-31T02:56:20.033Z,43.20
2022-10-31T03:01:36.462Z,39.73
2022-10-31T03:07:01.130Z,36.00
2022-10-31T03:12:44.551Z,38.43
2022-10-31T03:18:12.474Z,36.73
2022-10-31T03:23:18.173Z,43.30
2022-10-31T03:28:28.900Z,39.00
2022-10-31T03:33:37.641Z,40.73
2022-10-31T03:38:42.929Z,43.47
2022-10-31T03:43:54.972Z,43.70
2022-10-31T03:48:59.542Z,42.53
2022-10-31T03:54:10.735Z,39.03
2022-10-31T03:59:30.383Z,43.80
2022-10-31T04:04:35.000Z,52.50
2022-10-31T04:09:43.192Z,49.27
2022-10-31T04:14:49.624Z,60.87
2022-10-31T04:19:53.449Z,50.23
2022-10-31T04:24:56.780Z,53.57
2022-10-31T04:30:01.051Z,48.77
2022-10-31T04:35:04.500Z,54.43
2022-10-31T04:40:08.338Z,48.53
2022-10-31T04:45:15.469Z,45.77
2022-10-31T04:50:21.701Z,46.53
2022-10-31T04:55:24.712Z,43.67
2022-10-31T05:00:27.909Z,53.50
2022-10-31T05:05:32.734Z,52.13
2022-10-31T05:10:35.930Z,53.33
2022-10-31T05:15:39.310Z,50.53
2022-10-31T05:20:42.772Z,50.80
2022-10-31T05:25:45.812Z,47.10
2022-10-31T05:30:49.044Z,46.53
2022-10-31T05:35:52.058Z,54.17
2022-10-31T05:41:04.073Z,46.00
2022-10-31T05:46:07.319Z,49.33
2022-10-31T05:51:10.737Z,42.30
2022-10-31T05:56:14.123Z,46.40
2022-10-31T06:01:17.544Z,41.43
2022-10-31T06:06:21.069Z,39.40
2022-10-31T06:11:24.600Z,40.03
2022-10-31T06:16:28.053Z,47.37
2022-10-31T06:21:31.360Z,46.50
2022-10-31T06:26:34.570Z,48.23
2022-10-31T06:31:37.770Z,49.73
2022-10-31T06:36:41.541Z,41.40
2022-10-31T06:41:45.103Z,44.83
2022-10-31T06:46:49.009Z,46.07
2022-10-31T06:51:52.650Z,50.03
2022-10-31T06:56:55.640Z,45.23
2022-10-31T07:02:00.037Z,37.57
2022-10-31T07:07:07.057Z,43.97
2022-10-31T07:12:10.861Z,47.87
2022-10-31T07:17:13.850Z,38.03
2022-10-31T07:22:16.892Z,46.63
2022-10-31T07:27:20.302Z,44.53
2022-10-31T07:32:23.679Z,40.47
2022-10-31T07:37:29.291Z,35.67
2022-10-31T07:42:44.000Z,35.23
2022-10-31T07:47:50.212Z,38.60
2022-10-31T07:53:11.040Z,41.57
2022-10-31T07:58:16.755Z,39.37
2022-10-31T08:03:21.079Z,34.17
2022-10-31T08:08:25.495Z,35.90
2022-10-31T08:13:30.621Z,38.93
2022-10-31T08:18:34.572Z,35.33
2022-10-31T08:23:39.283Z,45.80
2022-10-31T08:28:43.940Z,35.20
2022-10-31T08:33:48.330Z,32.70
2022-10-31T08:38:52.033Z,39.47
2022-10-31T08:43:55.572Z,55.80
2022-10-31T08:48:59.472Z,46.17
2022-10-31T08:54:02.929Z,44.83
2022-10-31T08:59:06.520Z,53.67
2022-10-31T09:04:09.501Z,42.80
2022-10-31T09:09:12.528Z,42.73
2022-10-31T09:14:15.824Z,52.47
2022-10-31T09:19:19.604Z,46.87
2022-10-31T09:24:23.525Z,44.80
2022-10-31T09:29:26.867Z,41.00
2022-10-31T09:34:30.230Z,48.53
2022-10-31T09:39:33.530Z,48.33
2022-10-31T09:44:52.373Z,46.97
2022-10-31T09:50:08.035Z,49.83
2022-10-31T09:55:22.128Z,47.37
2022-10-31T10:00:25.219Z,70.23
2022-10-31T10:05:55.849Z,74.07
2022-10-31T10:11:20.263Z,64.17
2022-10-31T10:16:42.160Z,56.83
2022-10-31T10:22:00.679Z,47.57
2022-10-31T10:27:28.002Z,53.23
2022-10-31T10:32:35.509Z,60.20
2022-10-31T10:37:43.638Z,56.57
2022-10-31T10:43:19.823Z,48.83
2022-10-31T10:48:38.360Z,54.73
2022-10-31T10:54:07.977Z,61.93
2022-10-31T10:59:17.830Z,66.23
2022-10-31T11:04:34.710Z,52.23
2022-10-31T11:09:39.330Z,57.23
2022-10-31T11:14:49.288Z,64.30
2022-10-31T11:20:06.930Z,72.70
2022-10-31T11:25:27.708Z,70.20
2022-10-31T11:30:32.718Z,77.57
2022-10-31T11:35:42.525Z,78.37
2022-10-31T11:41:00.372Z,66.40
2022-10-31T11:46:16.937Z,73.93
2022-10-31T11:51:33.075Z,78.37
2022-10-31T11:56:41.431Z,77.97
2022-10-31T12:01:51.249Z,76.70
2022-10-31T12:06:56.441Z,69.83
2022-10-31T12:12:07.652Z,73.60
2022-10-31T12:17:14.217Z,79.43
2022-10-31T12:22:41.774Z,79.27
2022-10-31T12:28:23.989Z,82.80
2022-10-31T12:33:36.674Z,80.10
2022-10-31T12:38:41.133Z,91.73
2022-10-31T12:43:50.716Z,86.57
2022-10-31T12:49:28.909Z,83.73
2022-10-31T12:54:44.022Z,95.10
2022-10-31T13:00:12.028Z,82.90
2022-10-31T13:05:15.541Z,82.93
2022-10-31T13:10:25.341Z,80.77
2022-10-31T13:15:33.378Z,93.17
2022-10-31T13:20:55.971Z,81.60
2022-10-31T13:26:03.500Z,65.43
2022-10-31T13:31:06.522Z,85.23
2022-10-31T13:36:39.339Z,77.17
2022-10-31T13:41:54.355Z,68.40
2022-10-31T13:46:59.719Z,71.33
2022-10-31T13:52:11.721Z,62.47
2022-10-31T13:57:36.150Z,64.80
2022-10-31T14:02:46.400Z,61.93
2022-10-31T14:07:50.887Z,86.07
2022-10-31T14:12:56.880Z,73.10
2022-10-31T14:18:03.629Z,76.67
2022-10-31T14:23:31.878Z,93.50
2022-10-31T14:28:36.890Z,76.93
2022-10-31T14:33:44.459Z,87.50
2022-10-31T14:39:17.099Z,100.87
2022-10-31T14:44:44.450Z,88.60
2022-10-31T14:50:09.770Z,91.97
2022-10-31T14:55:15.735Z,99.80
2022-10-31T15:00:21.990Z,102.83
2022-10-31T15:05:27.617Z,111.70
2022-10-31T15:10:34.691Z,123.03
2022-10-31T15:15:38.711Z,87.50
2022-10-31T15:20:46.481Z,86.60
2022-10-31T15:25:49.480Z,71.73
2022-10-31T15:30:55.655Z,82.00
2022-10-31T15:36:04.026Z,84.20
2022-10-31T15:41:26.010Z,75.57
2022-10-31T15:46:29.788Z,73.07
2022-10-31T15:51:35.310Z,73.87
2022-10-31T15:56:39.440Z,64.97
2022-10-31T16:01:42.860Z,63.47
2022-10-31T16:06:57.929Z,73.27
2022-10-31T16:12:01.313Z,60.40
2022-10-31T16:17:04.500Z,66.47
2022-10-31T16:22:11.693Z,63.67
2022-10-31T16:27:27.269Z,68.73
2022-10-31T16:32:56.582Z,58.93
2022-10-31T16:37:59.980Z,72.47
2022-10-31T16:43:03.766Z,77.87
2022-10-31T16:48:12.224Z,94.50
2022-10-31T16:53:17.557Z,95.63
2022-10-31T16:58:29.829Z,99.60
2022-10-31T17:03:33.510Z,100.73
2022-10-31T17:08:37.597Z,98.50
2022-10-31T17:13:41.458Z,92.67
2022-10-31T17:18:46.749Z,79.53
2022-10-31T17:23:50.890Z,76.37
2022-10-31T17:28:56.690Z,75.77
2022-10-31T17:34:02.686Z,90.67
2022-10-31T17:39:09.890Z,83.47
2022-10-31T17:44:14.424Z,97.93
2022-10-31T17:49:18.510Z,114.57
2022-10-31T17:54:23.169Z,128.87
2022-10-31T17:59:30.597Z,129.30
2022-10-31T18:04:34.564Z,119.73
2022-10-31T18:09:38.090Z,115.37
2022-10-31T18:14:47.292Z,111.57
2022-10-31T18:19:51.669Z,98.73
2022-10-31T18:25:00.873Z,85.73
2022-10-31T18:30:05.834Z,78.53
2022-10-31T18:35:09.530Z,63.97
2022-10-31T18:40:14.401Z,92.27
2022-10-31T18:45:32.604Z,73.30
2022-10-31T18:50:41.558Z,56.37
2022-10-31T18:55:47.640Z,50.90
2022-10-31T19:00:54.622Z,55.50
2022-10-31T19:05:58.159Z,49.73
2022-10-31T19:11:14.111Z,47.87
2022-10-31T19:16:18.503Z,52.97
2022-10-31T19:21:23.864Z,40.90
2022-10-31T19:26:29.643Z,41.37
2022-10-31T19:31:33.320Z,49.37
2022-10-31T19:36:37.800Z,49.80
2022-10-31T19:41:41.990Z,48.80
2022-10-31T19:46:53.445Z,58.00
2022-10-31T19:51:57.979Z,57.30
2022-10-31T19:57:01.760Z,67.50
2022-10-31T20:02:06.180Z,71.57
2022-10-31T20:07:11.430Z,73.20
2022-10-31T20:12:17.661Z,73.33
2022-10-31T20:17:21.313Z,67.83
2022-10-31T20:22:25.431Z,67.70
2022-10-31T20:28:09.102Z,67.17
2022-10-31T20:39:41.251Z,66.90
2022-10-31T20:45:25.461Z,67.53
2022-10-31T20:50:39.428Z,77.47
2022-10-31T20:56:19.721Z,85.43
2022-10-31T21:02:17.102Z,64.67
2022-10-31T21:08:20.429Z,60.60
2022-10-31T21:14:46.611Z,56.10
2022-10-31T21:20:21.970Z,62.37
2022-10-31T21:25:52.638Z,61.63
2022-10-31T21:31:16.899Z,57.73
2022-10-31T22:46:01.138Z,72.30
2022-10-31T22:51:16.300Z,78.00
2022-10-31T22:56:21.491Z,75.93
2022-10-31T23:01:30.363Z,70.37
2022-10-31T23:06:34.496Z,74.03
2022-10-31T23:11:41.051Z,78.80
2022-10-31T23:16:46.254Z,65.87
2022-10-31T23:22:00.556Z,73.37
2022-10-31T23:27:10.412Z,69.30
2022-10-31T23:32:34.387Z,65.90
2022-10-31T23:37:39.222Z,62.47
2022-10-31T23:42:42.420Z,65.43
2022-10-31T23:47:45.689Z,64.20
2022-10-31T23:52:48.951Z,85.60
2022-10-31T23:57:52.400Z,92.83
